createdAt,value
2019-02-26T00:11:16.789Z,21.0
2019-02-26T00:28:04.846Z,21.0
2019-02-26T00:44:55.319Z,21.0
2019-02-26T01:01:44.090Z,21.0
2019-02-26T01:18:29.006Z,20.6
2019-02-26T01:35:16.330Z,20.6
2019-02-26T01:52:06.147Z,20.6
2019-02-26T02:08:53.628Z,20.6
2019-02-26T02:25:40.938Z,20.3
2019-02-26T02:42:26.383Z,20.3
2019-02-26T02:59:14.512Z,20.3
2019-02-26T03:16:01.653Z,20.3
2019-02-26T03:32:52.197Z,20.3
2019-02-26T03:49:35.087Z,20.0
2019-02-26T04:06:22.053Z,20.0
2019-02-26T04:23:11.374Z,20.0
2019-02-26T04:39:56.001Z,20.0
2019-02-26T04:56:45.202Z,20.0
2019-02-26T05:13:32.152Z,20.0
2019-02-26T05:30:19.340Z,20.0
2019-02-26T05:47:03.150Z,20.0
2019-02-26T06:03:51.939Z,20.0
2019-02-26T06:20:36.772Z,20.0
2019-02-26T06:37:23.765Z,20.0
2019-02-26T06:54:10.145Z,19.7
2019-02-26T07:10:58.849Z,19.7
2019-02-26T07:27:43.705Z,20.0
2019-02-26T07:44:30.524Z,20.0
2019-02-26T09:58:50.844Z,21.0
2019-02-26T10:15:39.952Z,21.0
2019-02-26T10:32:26.972Z,21.3
2019-02-26T10:49:14.670Z,21.3
2019-02-26T11:06:04.820Z,21.6
2019-02-26T11:22:52.147Z,21.6
2019-02-26T11:39:40.995Z,21.9
2019-02-26T11:56:30.177Z,22.2
2019-02-26T12:13:20.354Z,22.6
2019-02-26T12:30:09.985Z,22.9
2019-02-26T12:47:00.497Z,23.2
2019-02-26T13:03:54.631Z,23.2
2019-02-26T13:20:41.618Z,23.2
2019-02-26T13:37:35.548Z,23.2
2019-02-26T13:54:22.918Z,23.2
2019-02-26T14:11:13.645Z,23.2
2019-02-26T14:28:04.245Z,23.2
2019-02-26T14:44:54.878Z,22.9
2019-02-26T15:01:45.208Z,22.9
2019-02-26T15:18:35.883Z,22.9
2019-02-26T15:35:26.005Z,22.9
2019-02-26T15:52:16.136Z,22.6
2019-02-26T16:09:06.340Z,22.6
2019-02-26T16:25:56.357Z,22.6
2019-02-26T16:42:46.470Z,22.2
2019-02-26T16:59:38.536Z,22.2
2019-02-26T17:16:26.355Z,22.2
2019-02-26T17:33:16.300Z,22.2
2019-02-26T17:50:06.004Z,22.2
2019-02-26T18:06:57.821Z,21.9
2019-02-26T18:23:45.695Z,21.9
2019-02-26T18:40:35.277Z,21.9
2019-02-26T18:57:25.424Z,21.9
2019-02-26T19:14:14.024Z,21.6
2019-02-26T19:31:02.606Z,21.6
2019-02-26T19:47:51.140Z,21.6
2019-02-26T20:04:40.301Z,21.6
2019-02-26T20:21:28.079Z,21.3
2019-02-26T20:38:16.439Z,21.3
2019-02-26T20:55:05.133Z,21.3
2019-02-26T21:11:56.951Z,21.3
2019-02-26T21:28:46.683Z,21.3
2019-02-26T21:45:30.270Z,21.3
2019-02-26T22:02:18.861Z,21.3
2019-02-26T22:19:07.093Z,21.3
2019-02-26T22:35:57.005Z,21.3
2019-02-26T22:52:42.762Z,21.3
2019-02-26T23:09:31.029Z,21.3
2019-02-26T23:26:19.068Z,21.0
2019-02-26T23:43:07.103Z,21.0
2019-02-26T23:59:55.202Z,21.0
